createdAt,value
2022-12-27T00:02:22.270Z,1.17
2022-12-27T00:04:50.433Z,1.52
2022-12-27T00:07:19.607Z,1.40
2022-12-27T00:09:47.594Z,1.40
2022-12-27T00:12:15.362Z,1.15
2022-12-27T00:14:43.170Z,1.50
2022-12-27T00:17:11.005Z,1.00
2022-12-27T00:19:38.792Z,0.93
2022-12-27T00:22:06.583Z,1.23
2022-12-27T00:24:36.149Z,1.58
2022-12-27T00:27:03.918Z,1.02
2022-12-27T00:29:31.718Z,1.60
2022-12-27T00:31:59.568Z,1.20
2022-12-27T00:34:27.505Z,0.85
2022-12-27T00:36:55.299Z,1.00
2022-12-27T00:39:23.255Z,0.75
2022-12-27T00:41:52.374Z,0.98
2022-12-27T00:44:20.187Z,1.00
2022-12-27T00:46:48.257Z,2.22
2022-12-27T00:49:16.122Z,1.35
2022-12-27T00:51:43.940Z,0.90
2022-12-27T00:54:11.730Z,1.25
2022-12-27T00:56:39.520Z,1.10
2022-12-27T00:59:08.694Z,0.80
2022-12-27T01:01:37.322Z,1.55
2022-12-27T01:04:06.746Z,1.20
2022-12-27T01:06:36.061Z,0.75
2022-12-27T01:09:05.474Z,1.10
2022-12-27T01:11:33.817Z,1.42
2022-12-27T01:14:04.088Z,1.45
2022-12-27T01:16:34.044Z,1.30
2022-12-27T01:19:02.256Z,1.40
2022-12-27T01:21:31.242Z,0.90
2022-12-27T01:23:59.616Z,1.38
2022-12-27T01:26:27.534Z,1.02
2022-12-27T01:28:55.888Z,1.10
2022-12-27T01:31:27.610Z,1.15
2022-12-27T01:33:59.428Z,1.07
2022-12-27T01:36:29.159Z,1.00
2022-12-27T01:38:59.041Z,1.20
2022-12-27T01:41:46.719Z,1.30
2022-12-27T01:44:49.691Z,1.52
2022-12-27T01:47:35.552Z,0.90
2022-12-27T01:50:17.165Z,0.82
2022-12-27T01:52:48.034Z,1.67
2022-12-27T01:55:22.233Z,1.10
2022-12-27T01:57:51.670Z,1.15
2022-12-27T02:00:20.085Z,1.20
2022-12-27T02:02:48.211Z,1.23
2022-12-27T02:05:19.385Z,1.80
2022-12-27T02:07:58.547Z,1.25
2022-12-27T02:10:28.508Z,1.00
2022-12-27T02:12:57.421Z,1.10
2022-12-27T02:15:25.256Z,2.47
2022-12-27T02:17:53.297Z,0.82
2022-12-27T02:20:25.413Z,1.58
2022-12-27T02:23:26.283Z,1.25
2022-12-27T02:26:29.929Z,1.07
2022-12-27T02:29:14.396Z,1.40
2022-12-27T02:31:49.842Z,1.30
2022-12-27T02:34:23.494Z,1.20
2022-12-27T02:36:54.074Z,0.73
2022-12-27T02:39:23.942Z,1.23
2022-12-27T02:42:20.193Z,1.10
2022-12-27T02:45:12.700Z,1.30
2022-12-27T02:47:58.356Z,1.10
2022-12-27T02:50:50.721Z,1.20
2022-12-27T02:53:27.645Z,1.17
2022-12-27T02:56:33.629Z,0.95
2022-12-27T02:59:16.545Z,1.30
2022-12-27T03:02:12.971Z,1.17
2022-12-27T03:05:00.333Z,1.38
2022-12-27T03:07:36.208Z,1.77
2022-12-27T03:10:29.809Z,1.25
2022-12-27T03:13:25.208Z,1.58
2022-12-27T03:16:15.555Z,1.55
2022-12-27T03:19:09.039Z,1.45
2022-12-27T03:21:58.414Z,1.43
2022-12-27T03:24:47.072Z,1.33
2022-12-27T03:27:18.224Z,1.42
2022-12-27T03:30:11.057Z,1.17
2022-12-27T03:33:18.292Z,1.48
2022-12-27T03:36:07.549Z,1.77
2022-12-27T03:38:38.518Z,1.30
2022-12-27T03:41:26.589Z,1.55
2022-12-27T03:43:54.436Z,1.38
2022-12-27T03:46:35.347Z,1.80
2022-12-27T03:49:17.797Z,1.30
2022-12-27T03:51:49.718Z,1.35
2022-12-27T03:54:26.189Z,1.40
2022-12-27T03:56:56.281Z,1.13
2022-12-27T03:59:24.729Z,1.88
2022-12-27T04:01:52.648Z,1.27
2022-12-27T04:04:20.463Z,0.95
2022-12-27T04:06:49.685Z,1.38
2022-12-27T04:09:35.061Z,1.08
2022-12-27T04:12:20.849Z,1.40
2022-12-27T04:15:06.059Z,1.23
2022-12-27T04:17:51.398Z,1.50
2022-12-27T04:20:36.743Z,1.38
2022-12-27T04:23:24.234Z,1.63
2022-12-27T04:26:10.045Z,1.30
2022-12-27T04:28:55.499Z,1.10
2022-12-27T04:31:40.854Z,1.20
2022-12-27T04:34:26.683Z,1.40
2022-12-27T04:36:54.490Z,1.95
2022-12-27T04:39:23.569Z,1.33
2022-12-27T04:42:09.117Z,1.40
2022-12-27T04:44:55.334Z,1.35
2022-12-27T04:47:41.716Z,1.67
2022-12-27T04:50:32.938Z,1.58
2022-12-27T04:53:18.158Z,1.23
2022-12-27T04:55:47.360Z,1.10
2022-12-27T04:58:15.064Z,1.33
2022-12-27T05:01:00.290Z,1.15
2022-12-27T05:03:28.301Z,1.45
2022-12-27T05:05:56.395Z,1.00
2022-12-27T05:08:41.843Z,1.20
2022-12-27T05:11:29.284Z,1.05
2022-12-27T05:14:02.830Z,0.75
2022-12-27T05:16:32.432Z,1.00
2022-12-27T05:19:00.320Z,1.40
2022-12-27T05:21:28.491Z,1.03
2022-12-27T05:24:13.689Z,1.10
2022-12-27T05:26:42.935Z,1.10
2022-12-27T05:29:11.113Z,1.27
2022-12-27T05:31:39.012Z,1.00
2022-12-27T05:34:07.423Z,0.83
2022-12-27T05:36:35.602Z,1.00
2022-12-27T05:39:03.667Z,0.93
2022-12-27T05:41:31.411Z,1.33
2022-12-27T05:44:06.495Z,1.10
2022-12-27T05:46:35.293Z,1.20
2022-12-27T05:49:03.151Z,1.20
2022-12-27T05:51:31.181Z,1.00
2022-12-27T05:53:59.058Z,0.90
2022-12-27T05:56:26.964Z,1.48
2022-12-27T05:58:55.267Z,1.20
2022-12-27T06:01:24.517Z,1.38
2022-12-27T06:03:52.428Z,1.48
2022-12-27T06:06:20.284Z,1.13
2022-12-27T06:08:48.130Z,1.50
2022-12-27T06:11:17.739Z,1.90
2022-12-27T06:13:50.279Z,1.27
2022-12-27T06:16:18.287Z,2.00
2022-12-27T06:18:47.517Z,1.60
2022-12-27T06:21:16.921Z,1.20
2022-12-27T06:23:47.482Z,1.40
2022-12-27T06:26:17.421Z,1.00
2022-12-27T06:28:45.440Z,1.55
2022-12-27T06:31:13.718Z,1.20
2022-12-27T06:33:41.514Z,1.30
2022-12-27T06:36:13.875Z,1.00
2022-12-27T06:38:41.996Z,1.15
2022-12-27T06:41:11.546Z,1.30
2022-12-27T06:43:41.099Z,1.20
2022-12-27T06:46:17.161Z,1.20
2022-12-27T06:48:46.294Z,1.60
2022-12-27T06:51:17.194Z,1.00
2022-12-27T06:53:46.907Z,1.70
2022-12-27T06:56:19.074Z,1.08
2022-12-27T06:58:47.864Z,1.27
2022-12-27T07:01:18.017Z,1.57
2022-12-27T07:03:50.156Z,1.13
2022-12-27T07:06:20.220Z,0.90
2022-12-27T07:08:48.171Z,1.35
2022-12-27T07:11:17.284Z,0.90
2022-12-27T07:13:47.489Z,1.40
2022-12-27T07:16:17.875Z,1.50
2022-12-27T07:18:49.192Z,1.10
2022-12-27T07:21:21.104Z,1.70
2022-12-27T07:23:49.620Z,1.33
2022-12-27T07:26:19.284Z,0.90
2022-12-27T07:28:47.260Z,1.42
2022-12-27T07:31:16.925Z,1.08
2022-12-27T07:33:45.228Z,1.17
2022-12-27T07:36:15.565Z,1.30
2022-12-27T07:38:45.152Z,1.53
2022-12-27T07:41:13.896Z,1.05
2022-12-27T07:43:43.600Z,1.17
2022-12-27T07:46:13.856Z,0.90
2022-12-27T07:48:42.289Z,1.17
2022-12-27T07:51:10.819Z,1.30
2022-12-27T07:53:38.916Z,1.02
2022-12-27T07:56:11.251Z,1.17
2022-12-27T07:58:40.088Z,1.15
2022-12-27T08:01:09.327Z,0.80
2022-12-27T08:03:37.664Z,0.73
2022-12-27T08:06:06.403Z,0.90
2022-12-27T08:08:39.432Z,1.15
2022-12-27T08:11:08.979Z,0.90
2022-12-27T08:13:36.864Z,1.00
2022-12-27T08:16:05.649Z,0.93
2022-12-27T08:18:34.408Z,1.30
2022-12-27T08:21:02.170Z,1.70
2022-12-27T08:23:29.991Z,0.90
2022-12-27T08:25:57.840Z,0.80
2022-12-27T08:28:28.190Z,1.10
2022-12-27T08:30:56.094Z,1.20
2022-12-27T08:33:24.902Z,1.48
2022-12-27T08:35:54.391Z,1.20
2022-12-27T08:38:22.956Z,1.17
2022-12-27T08:40:50.846Z,0.90
2022-12-27T08:43:18.711Z,0.93
2022-12-27T08:45:48.073Z,1.00
2022-12-27T08:48:15.960Z,1.10
2022-12-27T08:50:44.208Z,1.15
2022-12-27T08:53:12.091Z,1.20
2022-12-27T08:55:39.969Z,0.85
2022-12-27T08:58:13.935Z,1.00
2022-12-27T09:00:43.643Z,1.00
2022-12-27T09:03:12.853Z,1.25
2022-12-27T09:05:42.068Z,1.00
2022-12-27T09:08:10.598Z,1.00
2022-12-27T09:10:39.382Z,0.95
2022-12-27T09:13:07.154Z,1.10
2022-12-27T09:15:35.026Z,1.05
2022-12-27T09:18:03.193Z,0.93
2022-12-27T09:20:32.339Z,0.90
2022-12-27T09:23:00.199Z,0.90
2022-12-27T09:25:28.104Z,1.20
2022-12-27T09:27:55.919Z,1.20
2022-12-27T09:30:23.723Z,1.73
2022-12-27T09:32:51.465Z,0.93
2022-12-27T09:35:19.258Z,1.70
2022-12-27T09:37:48.436Z,1.00
2022-12-27T09:40:19.173Z,1.00
2022-12-27T09:43:02.693Z,0.77
2022-12-27T09:45:38.235Z,1.10
2022-12-27T09:48:12.094Z,1.25
2022-12-27T09:50:48.080Z,0.77
2022-12-27T09:53:21.628Z,0.75
2022-12-27T09:55:52.455Z,0.90
2022-12-27T09:58:32.463Z,0.88
2022-12-27T10:01:00.538Z,0.63
2022-12-27T10:03:30.887Z,0.70
2022-12-27T10:06:31.020Z,1.05
2022-12-27T10:09:06.124Z,0.70
2022-12-27T10:11:43.377Z,1.10
2022-12-27T10:14:26.192Z,0.80
2022-12-27T10:17:01.640Z,1.02
2022-12-27T10:19:39.350Z,1.00
2022-12-27T10:22:30.909Z,1.10
2022-12-27T10:25:03.585Z,0.77
2022-12-27T10:27:32.249Z,1.27
2022-12-27T10:30:03.322Z,1.00
2022-12-27T10:32:31.137Z,1.15
2022-12-27T10:35:01.746Z,0.77
2022-12-27T10:37:31.020Z,1.13
2022-12-27T10:40:08.488Z,1.00
2022-12-27T10:42:39.822Z,0.80
2022-12-27T10:45:29.814Z,1.48
2022-12-27T10:48:00.723Z,0.80
2022-12-27T10:50:30.300Z,0.55
2022-12-27T10:52:58.101Z,0.80
2022-12-27T10:55:36.666Z,0.90
2022-12-27T10:58:32.712Z,0.80
2022-12-27T11:01:00.576Z,0.90
2022-12-27T11:03:28.556Z,1.02
2022-12-27T11:06:05.722Z,1.13
2022-12-27T11:08:34.234Z,0.80
2022-12-27T11:11:16.567Z,0.95
2022-12-27T11:13:44.676Z,0.67
2022-12-27T11:16:20.103Z,0.63
2022-12-27T11:18:51.101Z,0.77
2022-12-27T11:21:27.275Z,1.38
2022-12-27T11:23:59.170Z,0.93
2022-12-27T11:26:31.370Z,0.97
2022-12-27T11:29:01.867Z,0.63
2022-12-27T11:31:35.528Z,1.30
2022-12-27T11:34:06.414Z,0.90
2022-12-27T11:36:36.683Z,0.60
2022-12-27T11:39:05.057Z,1.00
2022-12-27T11:41:41.435Z,0.68
2022-12-27T11:44:19.026Z,0.75
2022-12-27T11:46:58.559Z,0.93
2022-12-27T11:49:32.177Z,1.00
2022-12-27T11:52:36.963Z,1.20
2022-12-27T11:55:32.976Z,1.20
2022-12-27T11:58:28.188Z,1.40
2022-12-27T12:01:05.325Z,1.35
2022-12-27T12:03:55.850Z,1.50
2022-12-27T12:06:35.896Z,1.67
2022-12-27T12:09:16.373Z,1.70
2022-12-27T12:12:02.962Z,1.63
2022-12-27T12:14:58.560Z,1.90
2022-12-27T12:17:42.749Z,1.92
2022-12-27T12:20:32.340Z,1.37
2022-12-27T12:23:11.187Z,1.90
2022-12-27T12:25:59.135Z,1.40
2022-12-27T12:28:59.553Z,1.92
2022-12-27T12:32:06.037Z,2.30
2022-12-27T12:34:52.172Z,1.80
2022-12-27T12:37:36.975Z,1.95
2022-12-27T12:40:26.279Z,1.60
2022-12-27T12:43:02.814Z,1.85
2022-12-27T12:45:49.069Z,1.67
2022-12-27T12:48:42.376Z,2.07
2022-12-27T12:51:34.240Z,2.00
2022-12-27T12:54:13.395Z,2.28
2022-12-27T12:56:55.422Z,1.70
2022-12-27T12:59:41.449Z,1.60
2022-12-27T13:02:34.900Z,1.90
2022-12-27T13:05:12.308Z,3.42
2022-12-27T13:08:00.203Z,4.00
2022-12-27T13:10:58.612Z,2.97
2022-12-27T13:13:37.787Z,2.83
2022-12-27T13:16:17.581Z,2.30
2022-12-27T13:18:55.284Z,2.55
2022-12-27T13:21:34.169Z,2.30
2022-12-27T13:24:13.217Z,2.53
2022-12-27T13:26:48.997Z,2.95
2022-12-27T13:29:41.482Z,2.77
2022-12-27T13:32:17.998Z,2.58
2022-12-27T13:34:56.148Z,2.38
2022-12-27T13:37:36.686Z,2.30
2022-12-27T13:40:31.960Z,2.40
2022-12-27T13:43:24.173Z,2.70
2022-12-27T13:46:09.312Z,3.17
2022-12-27T13:48:56.446Z,3.45
2022-12-27T13:51:43.920Z,3.03
2022-12-27T13:54:48.331Z,2.78
2022-12-27T13:57:38.061Z,2.63
2022-12-27T14:00:14.688Z,2.80
2022-12-27T14:03:15.281Z,2.20
2022-12-27T14:06:20.476Z,2.33
2022-12-27T14:09:20.241Z,2.35
2022-12-27T14:11:57.582Z,2.53
2022-12-27T14:14:28.692Z,3.15
2022-12-27T14:17:12.249Z,2.33
2022-12-27T14:19:58.983Z,2.00
2022-12-27T14:22:41.278Z,2.00
2022-12-27T14:25:55.691Z,2.03
2022-12-27T14:29:09.389Z,1.88
2022-12-27T14:32:18.853Z,1.95
2022-12-27T14:35:17.937Z,1.95
2022-12-27T14:38:51.843Z,1.80
2022-12-27T14:41:56.890Z,1.87
2022-12-27T14:45:11.251Z,1.50
2022-12-27T14:48:09.757Z,2.03
2022-12-27T14:51:41.571Z,2.58
2022-12-27T14:54:34.773Z,2.70
2022-12-27T14:57:13.213Z,3.17
2022-12-27T14:59:48.895Z,2.90
2022-12-27T15:02:45.698Z,3.05
2022-12-27T15:05:29.304Z,2.92
2022-12-27T15:08:20.892Z,3.00
2022-12-27T15:11:02.506Z,3.40
2022-12-27T15:13:44.536Z,3.33
2022-12-27T15:16:20.645Z,2.97
2022-12-27T15:19:01.770Z,2.80
2022-12-27T15:21:47.939Z,2.85
2022-12-27T15:24:31.647Z,3.87
2022-12-27T15:27:06.274Z,3.05
2022-12-27T15:29:44.319Z,2.88
2022-12-27T15:32:25.899Z,3.15
2022-12-27T15:35:07.903Z,3.95
2022-12-27T15:38:03.752Z,4.03
2022-12-27T15:40:56.408Z,3.13
2022-12-27T15:43:44.323Z,3.40
2022-12-27T15:46:32.498Z,3.10
2022-12-27T15:49:18.569Z,3.10
2022-12-27T15:51:53.877Z,3.67
2022-12-27T15:54:34.395Z,2.75
2022-12-27T15:57:35.343Z,3.00
2022-12-27T16:00:15.985Z,2.90
2022-12-27T16:02:56.372Z,3.25
2022-12-27T16:05:45.256Z,3.30
2022-12-27T16:08:26.931Z,3.60
2022-12-27T16:10:56.070Z,4.15
2022-12-27T16:13:50.042Z,4.60
2022-12-27T16:16:54.937Z,4.38
2022-12-27T16:19:40.802Z,5.27
2022-12-27T16:22:27.319Z,5.45
2022-12-27T16:24:55.670Z,6.70
2022-12-27T16:27:31.525Z,7.38
2022-12-27T16:30:00.992Z,7.00
2022-12-27T16:32:29.654Z,6.83
2022-12-27T16:35:13.531Z,7.10
2022-12-27T16:37:45.334Z,7.32
2022-12-27T16:40:39.424Z,7.70
2022-12-27T16:43:31.028Z,7.82
2022-12-27T16:46:13.079Z,7.73
2022-12-27T16:48:58.632Z,7.90
2022-12-27T16:51:36.407Z,8.50
2022-12-27T16:54:09.323Z,8.60
2022-12-27T16:56:37.943Z,8.38
2022-12-27T16:59:45.210Z,8.27
2022-12-27T17:05:36.228Z,7.80
2022-12-27T17:08:20.195Z,7.85
2022-12-27T17:11:23.628Z,7.68
2022-12-27T17:13:55.552Z,7.70
2022-12-27T17:16:25.957Z,7.50
2022-12-27T17:18:57.833Z,7.50
2022-12-27T17:21:30.929Z,8.57
2022-12-27T17:24:01.112Z,7.45
2022-12-27T17:27:07.976Z,8.18
2022-12-27T17:30:07.171Z,8.43
2022-12-27T17:32:53.656Z,7.97
2022-12-27T17:35:29.244Z,6.90
2022-12-27T17:38:10.413Z,6.85
2022-12-27T17:40:45.818Z,6.35
2022-12-27T17:43:43.277Z,4.87
2022-12-27T17:46:26.816Z,5.75
2022-12-27T17:48:56.021Z,6.15
2022-12-27T17:51:26.847Z,6.28
2022-12-27T17:54:14.911Z,4.95
2022-12-27T17:57:02.076Z,5.50
2022-12-27T17:59:31.142Z,5.68
2022-12-27T18:02:02.222Z,5.57
2022-12-27T18:04:33.203Z,4.80
2022-12-27T18:07:03.009Z,5.03
2022-12-27T18:09:41.461Z,5.63
2022-12-27T18:12:18.712Z,5.68
2022-12-27T18:14:51.349Z,6.35
2022-12-27T18:17:28.982Z,5.20
2022-12-27T18:19:57.491Z,4.75
2022-12-27T18:26:12.350Z,3.90
2022-12-27T18:28:45.281Z,4.60
2022-12-27T18:31:17.493Z,4.10
2022-12-27T18:33:47.568Z,4.43
2022-12-27T18:36:23.883Z,3.87
2022-12-27T18:38:56.400Z,3.92
2022-12-27T18:41:26.181Z,4.10
2022-12-27T18:43:59.691Z,3.70
2022-12-27T18:46:30.479Z,3.65
2022-12-27T18:48:58.707Z,3.97
2022-12-27T18:51:34.507Z,4.20
2022-12-27T18:54:03.155Z,3.83
2022-12-27T18:56:35.464Z,3.60
2022-12-27T18:59:05.974Z,4.32
2022-12-27T19:01:41.305Z,3.70
2022-12-27T19:04:26.977Z,3.03
2022-12-27T19:06:59.442Z,3.38
2022-12-27T19:09:30.563Z,3.50
2022-12-27T19:12:03.303Z,3.13
2022-12-27T19:14:38.473Z,3.57
2022-12-27T19:17:11.023Z,2.83
2022-12-27T19:19:39.399Z,2.90
2022-12-27T19:22:32.699Z,2.40
2022-12-27T19:25:01.512Z,3.08
2022-12-27T19:27:30.715Z,2.90
2022-12-27T19:29:58.585Z,2.70
2022-12-27T19:32:32.585Z,2.78
2022-12-27T19:35:03.300Z,2.60
2022-12-27T19:37:33.384Z,2.92
2022-12-27T19:40:01.264Z,2.80
2022-12-27T19:42:32.104Z,2.40
2022-12-27T19:44:59.946Z,2.80
2022-12-27T19:47:28.605Z,2.90
2022-12-27T19:49:56.428Z,2.78
2022-12-27T19:52:26.873Z,2.20
2022-12-27T19:55:02.475Z,2.17
2022-12-27T19:57:31.785Z,2.60
2022-12-27T19:59:59.586Z,2.42
2022-12-27T20:02:27.744Z,2.42
2022-12-27T20:04:56.435Z,2.63
2022-12-27T20:07:26.727Z,2.25
2022-12-27T20:09:54.584Z,2.22
2022-12-27T20:12:22.437Z,2.20
2022-12-27T20:14:51.716Z,2.40
2022-12-27T20:17:19.528Z,2.40
2022-12-27T20:19:47.362Z,2.78
2022-12-27T20:22:15.236Z,2.25
2022-12-27T20:24:43.038Z,3.00
2022-12-27T20:27:10.896Z,2.20
2022-12-27T20:29:38.669Z,2.73
2022-12-27T20:32:08.078Z,2.47
2022-12-27T20:34:35.806Z,2.17
2022-12-27T20:37:03.804Z,2.72
2022-12-27T20:39:31.779Z,2.20
2022-12-27T20:41:59.547Z,2.20
2022-12-27T20:44:27.775Z,2.53
2022-12-27T20:46:55.699Z,2.60
2022-12-27T20:49:24.802Z,2.15
2022-12-27T20:51:52.762Z,2.30
2022-12-27T20:54:20.612Z,2.50
2022-12-27T20:56:48.414Z,2.50
2022-12-27T20:59:16.241Z,2.63
2022-12-27T21:01:44.198Z,2.42
2022-12-27T21:04:12.005Z,2.63
2022-12-27T21:06:41.135Z,2.40
2022-12-27T21:09:09.370Z,2.67
2022-12-27T21:11:37.620Z,2.45
2022-12-27T21:14:06.328Z,3.03
2022-12-27T21:16:35.853Z,2.35
2022-12-27T21:19:05.006Z,2.90
2022-12-27T21:21:35.538Z,2.75
2022-12-27T21:24:06.054Z,3.13
2022-12-27T21:26:36.961Z,2.63
2022-12-27T21:29:07.265Z,2.40
2022-12-27T21:31:35.857Z,2.50
2022-12-27T21:34:05.219Z,2.90
2022-12-27T21:36:34.026Z,2.85
2022-12-27T21:39:02.911Z,2.28
2022-12-27T21:41:34.021Z,2.90
2022-12-27T21:44:02.260Z,2.53
2022-12-27T21:46:31.532Z,2.15
2022-12-27T21:49:01.392Z,3.08
2022-12-27T21:51:30.648Z,2.45
2022-12-27T21:53:58.555Z,2.88
2022-12-27T21:56:27.136Z,3.03
2022-12-27T21:58:56.852Z,2.17
2022-12-27T22:01:26.647Z,3.45
2022-12-27T22:03:56.218Z,2.60
2022-12-27T22:06:26.562Z,2.10
2022-12-27T22:08:56.147Z,2.90
2022-12-27T22:11:25.212Z,3.15
2022-12-27T22:13:53.098Z,2.33
2022-12-27T22:16:24.497Z,3.28
2022-12-27T22:18:52.583Z,2.58
2022-12-27T22:21:23.188Z,2.97
2022-12-27T22:23:52.992Z,3.10
2022-12-27T22:26:22.101Z,2.75
2022-12-27T22:28:50.587Z,2.30
2022-12-27T22:31:20.444Z,2.50
2022-12-27T22:33:50.976Z,2.93
2022-12-27T22:36:20.299Z,2.42
2022-12-27T22:38:50.212Z,2.65
2022-12-27T22:41:20.248Z,2.72
2022-12-27T22:43:51.327Z,3.28
2022-12-27T22:46:19.782Z,2.70
2022-12-27T22:48:51.761Z,2.67
2022-12-27T22:51:22.206Z,2.70
2022-12-27T22:53:50.722Z,3.20
2022-12-27T22:56:19.943Z,2.67
2022-12-27T22:58:48.109Z,3.60
2022-12-27T23:01:17.614Z,3.00
2022-12-27T23:03:45.519Z,3.03
2022-12-27T23:06:14.857Z,2.33
2022-12-27T23:08:44.903Z,3.13
2022-12-27T23:11:14.642Z,2.97
2022-12-27T23:13:42.475Z,2.78
2022-12-27T23:16:11.042Z,3.13
2022-12-27T23:18:40.035Z,3.38
2022-12-27T23:21:21.595Z,3.03
2022-12-27T23:23:53.884Z,3.33
2022-12-27T23:26:23.752Z,3.70
2022-12-27T23:28:53.283Z,3.33
2022-12-27T23:31:23.319Z,3.80
2022-12-27T23:33:51.763Z,3.75
2022-12-27T23:36:20.535Z,3.80
2022-12-27T23:38:48.575Z,3.92
2022-12-27T23:41:19.726Z,3.88
2022-12-27T23:43:52.876Z,3.22
2022-12-27T23:46:24.111Z,3.65
2022-12-27T23:48:52.303Z,3.97
2022-12-27T23:51:21.269Z,3.80
2022-12-27T23:53:49.289Z,3.38
2022-12-27T23:56:20.198Z,3.65
2022-12-27T23:58:48.758Z,3.97
